createdAt,value
2022-12-08T00:01:38.705Z,18.10
2022-12-08T00:04:13.270Z,20.13
2022-12-08T00:07:01.336Z,19.67
2022-12-08T00:09:38.689Z,18.38
2022-12-08T00:12:11.663Z,19.30
2022-12-08T00:14:44.041Z,19.00
2022-12-08T00:17:16.891Z,15.63
2022-12-08T00:19:45.887Z,18.58
2022-12-08T00:22:16.428Z,23.02
2022-12-08T00:24:46.644Z,19.35
2022-12-08T00:27:21.154Z,13.40
2022-12-08T00:29:50.806Z,12.93
2022-12-08T00:32:20.963Z,13.05
2022-12-08T00:34:50.676Z,16.85
2022-12-08T00:37:19.303Z,13.35
2022-12-08T00:39:54.658Z,16.02
2022-12-08T00:42:24.322Z,15.75
2022-12-08T00:44:54.908Z,12.00
2022-12-08T00:47:25.192Z,14.65
2022-12-08T00:49:54.218Z,15.32
2022-12-08T00:52:23.884Z,15.70
2022-12-08T00:54:56.567Z,15.50
2022-12-08T00:57:26.089Z,13.23
2022-12-08T00:59:54.957Z,15.43
2022-12-08T01:02:33.578Z,13.45
2022-12-08T01:05:02.209Z,15.43
2022-12-08T01:07:33.418Z,16.23
2022-12-08T01:10:04.479Z,19.35
2022-12-08T01:12:33.506Z,14.65
2022-12-08T01:15:09.235Z,13.17
2022-12-08T01:17:40.359Z,15.90
2022-12-08T01:20:11.180Z,15.07
2022-12-08T01:22:39.794Z,12.93
2022-12-08T01:25:08.887Z,12.80
2022-12-08T01:27:37.667Z,15.07
2022-12-08T01:30:07.490Z,13.60
2022-12-08T01:32:41.478Z,16.88
2022-12-08T01:35:14.438Z,14.48
2022-12-08T01:37:43.088Z,11.10
2022-12-08T01:40:12.347Z,13.25
2022-12-08T01:42:41.074Z,9.70
2022-12-08T01:45:16.835Z,14.15
2022-12-08T01:47:57.810Z,13.10
2022-12-08T01:50:29.884Z,12.18
2022-12-08T01:53:03.179Z,11.77
2022-12-08T01:55:35.050Z,13.82
2022-12-08T01:58:13.883Z,7.97
2022-12-08T02:00:51.553Z,11.52
2022-12-08T02:03:28.810Z,12.73
2022-12-08T02:05:57.439Z,10.90
2022-12-08T02:08:27.640Z,15.18
2022-12-08T02:10:57.344Z,9.30
2022-12-08T02:13:27.249Z,9.85
2022-12-08T02:16:06.983Z,11.23
2022-12-08T02:19:28.928Z,10.60
2022-12-08T02:21:58.787Z,10.18
2022-12-08T02:24:38.146Z,13.60
2022-12-08T02:27:35.328Z,10.75
2022-12-08T02:30:13.623Z,7.82
2022-12-08T02:33:22.698Z,8.95
2022-12-08T02:35:59.926Z,9.93
2022-12-08T02:38:41.965Z,7.03
2022-12-08T02:41:25.617Z,11.60
2022-12-08T02:44:02.066Z,9.32
2022-12-08T02:46:37.352Z,14.75
2022-12-08T02:49:08.659Z,12.00
2022-12-08T02:51:41.003Z,10.30
2022-12-08T02:54:09.979Z,10.57
2022-12-08T02:56:59.669Z,10.30
2022-12-08T02:59:38.309Z,9.40
2022-12-08T03:02:28.422Z,10.55
2022-12-08T03:05:08.178Z,11.77
2022-12-08T03:07:44.451Z,12.13
2022-12-08T03:10:17.896Z,10.65
2022-12-08T03:12:52.057Z,13.20
2022-12-08T03:15:23.267Z,11.40
2022-12-08T03:17:58.293Z,9.68
2022-12-08T03:20:29.617Z,12.43
2022-12-08T03:23:03.891Z,12.95
2022-12-08T03:25:42.827Z,13.02
2022-12-08T03:28:14.757Z,11.65
2022-12-08T03:30:47.852Z,14.93
2022-12-08T03:33:25.055Z,11.85
2022-12-08T03:35:55.793Z,11.07
2022-12-08T03:38:26.008Z,16.25
2022-12-08T03:41:14.439Z,19.48
2022-12-08T03:43:43.089Z,13.45
2022-12-08T03:46:14.944Z,16.80
2022-12-08T03:48:43.541Z,13.77
2022-12-08T03:51:12.644Z,17.08
2022-12-08T03:53:43.335Z,18.55
2022-12-08T03:56:26.870Z,16.58
2022-12-08T03:59:02.761Z,16.88
2022-12-08T04:01:32.650Z,19.95
2022-12-08T04:04:01.237Z,18.27
2022-12-08T04:06:32.112Z,20.77
2022-12-08T04:09:02.208Z,17.48
2022-12-08T04:11:30.890Z,19.95
2022-12-08T04:13:59.472Z,16.00
2022-12-08T04:16:28.793Z,18.60
2022-12-08T04:18:57.521Z,16.25
2022-12-08T04:21:26.376Z,15.23
2022-12-08T04:24:00.774Z,17.23
2022-12-08T04:26:33.626Z,15.70
2022-12-08T04:29:03.138Z,19.00
2022-12-08T04:31:31.982Z,17.25
2022-12-08T04:34:00.812Z,15.77
2022-12-08T04:36:29.418Z,23.00
2022-12-08T04:38:59.544Z,18.10
2022-12-08T04:41:28.106Z,19.55
2022-12-08T04:43:58.323Z,13.35
2022-12-08T04:46:26.796Z,15.05
2022-12-08T04:48:55.225Z,14.00
2022-12-08T04:51:28.016Z,13.52
2022-12-08T04:53:57.487Z,16.02
2022-12-08T04:56:26.087Z,13.32
2022-12-08T04:58:55.686Z,15.32
2022-12-08T05:01:26.878Z,16.48
2022-12-08T05:04:05.255Z,13.95
2022-12-08T05:06:36.967Z,15.60
2022-12-08T05:09:14.715Z,20.83
2022-12-08T05:11:48.566Z,21.75
2022-12-08T05:14:21.599Z,25.20
2022-12-08T05:16:53.670Z,28.95
2022-12-08T05:19:22.346Z,24.25
2022-12-08T05:21:50.957Z,23.13
2022-12-08T05:24:22.307Z,23.15
2022-12-08T05:26:58.555Z,27.27
2022-12-08T05:29:28.009Z,22.23
2022-12-08T05:31:59.710Z,19.48
2022-12-08T05:34:34.454Z,20.20
2022-12-08T05:37:05.935Z,16.45
2022-12-08T05:39:36.666Z,20.13
2022-12-08T05:42:05.604Z,20.48
2022-12-08T05:44:34.296Z,16.55
2022-12-08T05:47:05.450Z,16.42
2022-12-08T05:49:34.236Z,15.55
2022-12-08T05:52:03.945Z,15.05
2022-12-08T05:54:35.718Z,16.63
2022-12-08T05:57:04.356Z,18.42
2022-12-08T05:59:34.144Z,19.45
2022-12-08T06:02:07.424Z,19.17
2022-12-08T06:04:37.827Z,18.92
2022-12-08T06:07:15.961Z,21.25
2022-12-08T06:09:44.934Z,15.60
2022-12-08T06:12:14.624Z,13.38
2022-12-08T06:14:44.025Z,14.25
2022-12-08T06:17:15.126Z,18.40
2022-12-08T06:19:43.898Z,17.48
2022-12-08T06:22:12.476Z,17.38
2022-12-08T06:24:41.127Z,17.08
2022-12-08T06:27:09.616Z,15.40
2022-12-08T06:29:38.215Z,18.75
2022-12-08T06:32:08.196Z,14.90
2022-12-08T06:34:38.883Z,13.95
2022-12-08T06:37:07.746Z,17.08
2022-12-08T06:39:36.338Z,14.48
2022-12-08T06:42:22.478Z,19.60
2022-12-08T06:44:53.097Z,18.25
2022-12-08T06:47:26.197Z,15.77
2022-12-08T06:49:56.717Z,13.93
2022-12-08T06:52:31.329Z,14.85
2022-12-08T06:54:59.840Z,20.17
2022-12-08T06:57:28.394Z,16.33
2022-12-08T06:59:57.843Z,18.80
2022-12-08T07:02:26.524Z,17.67
2022-12-08T07:04:57.836Z,14.82
2022-12-08T07:07:26.301Z,16.08
2022-12-08T07:09:54.734Z,16.35
2022-12-08T07:12:23.448Z,13.65
2022-12-08T07:14:52.529Z,17.33
2022-12-08T07:17:23.801Z,17.75
2022-12-08T07:20:10.720Z,16.98
2022-12-08T07:32:57.889Z,18.42
2022-12-08T08:16:09.923Z,19.90
2022-12-08T08:27:54.866Z,21.13
2022-12-08T08:46:30.854Z,21.13
2022-12-08T09:23:14.854Z,21.27
2022-12-08T16:25:23.217Z,9.45
2022-12-08T16:28:12.370Z,16.00
2022-12-08T16:30:41.726Z,23.95
2022-12-08T16:33:11.770Z,27.63
2022-12-08T16:35:40.965Z,24.35
2022-12-08T16:38:09.759Z,23.83
2022-12-08T16:41:00.320Z,19.98
2022-12-08T16:43:27.776Z,12.65
2022-12-08T16:45:56.853Z,9.25
2022-12-08T16:48:25.410Z,10.50
2022-12-08T16:50:57.590Z,11.57
2022-12-08T16:53:26.149Z,11.32
2022-12-08T16:55:56.215Z,14.27
2022-12-08T16:58:24.962Z,18.00
2022-12-08T17:00:54.669Z,22.02
2022-12-08T17:03:23.209Z,15.60
2022-12-08T17:05:52.811Z,23.67
2022-12-08T17:08:21.442Z,25.52
2022-12-08T17:11:07.686Z,21.83
2022-12-08T17:13:39.921Z,39.10
2022-12-08T17:16:12.296Z,27.77
2022-12-08T17:18:41.282Z,21.58
2022-12-08T17:21:13.483Z,22.10
2022-12-08T17:23:43.172Z,18.65
2022-12-08T17:26:12.431Z,16.33
2022-12-08T17:31:33.838Z,23.88
2022-12-08T17:34:03.195Z,21.13
2022-12-08T17:36:32.711Z,20.27
2022-12-08T17:39:02.471Z,18.85
2022-12-08T17:41:31.262Z,22.77
2022-12-08T17:44:01.567Z,19.02
2022-12-08T17:46:30.264Z,22.65
2022-12-08T17:48:58.726Z,22.65
2022-12-08T17:51:27.755Z,21.65
2022-12-08T17:53:56.312Z,14.82
2022-12-08T17:56:25.138Z,19.70
2022-12-08T17:58:55.007Z,16.20
2022-12-08T18:01:27.794Z,14.57
2022-12-08T18:03:56.352Z,19.65
2022-12-08T18:06:29.630Z,15.75
2022-12-08T18:09:02.347Z,15.75
2022-12-08T18:11:31.690Z,13.30
2022-12-08T18:14:00.698Z,19.13
2022-12-08T18:16:31.806Z,16.35
2022-12-08T18:19:00.479Z,16.88
2022-12-08T18:21:29.036Z,20.30
2022-12-08T18:23:57.881Z,17.30
2022-12-08T18:26:26.412Z,17.38
2022-12-08T18:28:54.941Z,19.60
2022-12-08T18:31:24.592Z,23.45
2022-12-08T18:33:55.525Z,21.30
2022-12-08T18:36:26.871Z,21.67
2022-12-08T18:38:55.956Z,21.92
2022-12-08T18:41:27.193Z,19.30
2022-12-08T18:43:57.913Z,16.17
2022-12-08T18:46:27.143Z,15.55
2022-12-08T18:48:57.225Z,17.08
2022-12-08T18:51:26.939Z,16.73
2022-12-08T18:53:55.540Z,20.83
2022-12-08T18:56:26.794Z,17.75
2022-12-08T18:59:01.274Z,12.70
2022-12-08T19:01:32.670Z,15.95
2022-12-08T19:06:52.581Z,15.75
2022-12-08T19:09:22.825Z,39.92
2022-12-08T19:11:51.391Z,30.92
2022-12-08T19:14:25.733Z,32.97
2022-12-08T19:16:56.570Z,36.50
2022-12-08T19:19:26.962Z,27.48
2022-12-08T19:21:55.689Z,18.42
2022-12-08T19:24:24.649Z,20.40
2022-12-08T19:26:53.835Z,35.97
2022-12-08T19:29:22.962Z,40.33
2022-12-08T19:31:51.825Z,33.60
2022-12-08T19:34:20.583Z,33.63
2022-12-08T19:36:50.580Z,36.33
2022-12-08T19:39:38.432Z,37.22
2022-12-08T19:42:33.255Z,35.25
2022-12-08T19:45:05.623Z,34.80
2022-12-08T19:47:34.681Z,29.80
2022-12-08T19:50:20.537Z,32.83
2022-12-08T19:52:50.542Z,49.50
2022-12-08T19:55:19.665Z,31.65
2022-12-08T19:57:48.631Z,26.75
2022-12-08T20:00:17.786Z,24.02
2022-12-08T20:02:47.312Z,27.13
2022-12-08T20:05:16.787Z,30.15
2022-12-08T20:07:45.992Z,31.17
2022-12-08T20:10:18.186Z,39.15
2022-12-08T20:12:48.797Z,33.17
2022-12-08T20:15:17.570Z,34.03
2022-12-08T20:17:46.048Z,38.75
2022-12-08T20:20:16.184Z,36.83
2022-12-08T20:22:45.464Z,40.47
2022-12-08T20:25:15.637Z,43.13
2022-12-08T20:27:44.727Z,42.10
2022-12-08T20:30:16.985Z,39.17
2022-12-08T20:32:46.283Z,49.38
2022-12-08T20:35:19.477Z,49.40
2022-12-08T20:37:48.226Z,40.10
2022-12-08T20:40:18.671Z,38.13
2022-12-08T20:42:50.593Z,41.25
2022-12-08T20:45:19.387Z,51.53
2022-12-08T20:47:53.763Z,41.03
2022-12-08T20:50:25.304Z,51.30
2022-12-08T20:52:54.008Z,46.08
2022-12-08T20:55:23.962Z,57.05
2022-12-08T20:57:52.607Z,42.95
2022-12-08T21:00:23.528Z,38.75
2022-12-08T21:02:56.567Z,39.90
2022-12-08T21:05:28.268Z,35.40
2022-12-08T21:07:57.071Z,38.22
2022-12-08T21:10:27.394Z,37.08
2022-12-08T21:12:56.125Z,31.55
2022-12-08T21:15:24.929Z,30.10
2022-12-08T21:17:55.346Z,33.78
2022-12-08T21:20:24.266Z,30.20
2022-12-08T21:22:53.101Z,28.10
2022-12-08T21:25:27.626Z,30.05
2022-12-08T21:28:05.906Z,36.08
2022-12-08T21:30:34.561Z,48.30
2022-12-08T21:33:09.247Z,46.83
2022-12-08T21:35:40.666Z,48.65
2022-12-08T21:38:09.675Z,33.35
2022-12-08T21:40:39.964Z,33.55
2022-12-08T21:43:11.618Z,24.60
2022-12-08T21:45:40.573Z,25.80
2022-12-08T21:48:29.135Z,30.38
2022-12-08T21:51:04.852Z,32.88
2022-12-08T21:53:33.672Z,34.97
2022-12-08T21:56:02.283Z,34.40
2022-12-08T21:58:33.070Z,33.03
2022-12-08T22:01:12.599Z,41.13
2022-12-08T22:03:42.421Z,36.20
2022-12-08T22:06:13.852Z,33.35
2022-12-08T22:08:43.850Z,34.80
2022-12-08T22:11:13.911Z,34.60
2022-12-08T22:13:45.104Z,35.92
2022-12-08T22:16:15.602Z,33.45
2022-12-08T22:18:49.415Z,35.83
2022-12-08T22:26:08.261Z,39.25
2022-12-08T22:49:13.650Z,32.17
2022-12-08T22:56:59.297Z,36.40
2022-12-08T23:59:19.916Z,38.53
